Time;durP1;ratioP1;P1;durP2;ratioP2;P2;SDS_P1;SDS_P2;PMS_P1;PMS_P2;Temp;Humidity;BMP_temperature;BMP_pressure;BME280_temperature;BME280_humidity;BME280_pressure;Samples;Min_cycle;Max_cycle;Signal;HPM_P1;HPM_P2
2021/03/02 00:01:46;;;;;;;12.23;7.22;;;3.70;99.90;;;;;;5113829;28;20726;-82
2021/03/02 00:04:13;;;;;;;10.50;8.25;;;3.80;99.90;;;;;;5112989;28;20201;-85
2021/03/02 00:06:40;;;;;;;14.45;7.95;;;3.70;99.90;;;;;;5110482;28;20211;-82
2021/03/02 00:09:07;;;;;;;16.27;8.30;;;3.70;99.90;;;;;;5110577;28;20596;-82
2021/03/02 00:11:37;;;;;;;10.52;7.65;;;3.60;99.90;;;;;;5113986;28;20226;-82
2021/03/02 00:14:04;;;;;;;7.80;5.60;;;3.50;99.90;;;;;;5112170;28;20203;-82
2021/03/02 00:16:34;;;;;;;12.80;6.95;;;3.40;99.90;;;;;;5113391;28;20197;-84
2021/03/02 00:19:09;;;;;;;8.35;5.82;;;3.40;99.90;;;;;;5112372;28;20284;-82
2021/03/02 00:21:41;;;;;;;9.70;6.28;;;3.50;99.90;;;;;;5114099;28;20325;-83
2021/03/02 00:24:11;;;;;;;8.10;6.13;;;3.60;99.90;;;;;;5116896;28;20206;-82
2021/03/02 00:26:42;;;;;;;10.18;6.30;;;3.60;99.90;;;;;;5116756;28;20294;-81
2021/03/02 00:29:10;;;;;;;7.40;5.95;;;3.70;99.90;;;;;;5115736;28;20322;-81
2021/03/02 00:31:41;;;;;;;8.90;5.80;;;3.60;99.90;;;;;;5116294;28;20207;-82
2021/03/02 00:34:07;;;;;;;8.48;6.15;;;3.70;99.90;;;;;;5115580;28;20291;-81
2021/03/02 00:36:33;;;;;;;11.07;6.45;;;3.60;99.90;;;;;;5116396;28;20718;-84
2021/03/02 00:39:00;;;;;;;10.02;6.70;;;3.50;99.90;;;;;;5116019;28;20234;-83
2021/03/02 00:41:26;;;;;;;9.45;6.20;;;3.50;99.90;;;;;;5116227;28;20284;-83
2021/03/02 00:43:53;;;;;;;7.65;5.50;;;3.50;99.90;;;;;;5115147;28;20322;-81
2021/03/02 00:46:19;;;;;;;10.02;6.78;;;3.60;99.90;;;;;;5116107;28;20268;-82
2021/03/02 00:48:47;;;;;;;13.38;6.15;;;3.50;99.90;;;;;;5115100;28;20223;-81
2021/03/02 00:51:13;;;;;;;7.22;6.00;;;3.50;99.90;;;;;;5116758;28;20569;-82
2021/03/02 00:53:40;;;;;;;12.23;7.75;;;3.50;99.90;;;;;;5116863;28;20624;-83
2021/03/02 00:56:07;;;;;;;11.32;5.97;;;3.50;99.90;;;;;;5116221;28;20200;-82
2021/03/02 00:58:33;;;;;;;8.20;5.75;;;3.40;99.90;;;;;;5115221;28;20196;-82
2021/03/02 01:01:00;;;;;;;7.10;4.80;;;3.60;99.90;;;;;;5116009;28;20197;-82
2021/03/02 01:03:27;;;;;;;13.00;5.90;;;3.60;99.90;;;;;;5112723;28;20647;-81
2021/03/02 01:05:54;;;;;;;9.48;5.45;;;3.70;99.90;;;;;;5115965;28;20263;-81
2021/03/02 01:08:20;;;;;;;6.65;4.68;;;3.70;99.90;;;;;;5116317;28;20298;-82
2021/03/02 01:10:47;;;;;;;7.43;5.18;;;3.70;99.90;;;;;;5116350;28;20603;-81
2021/03/02 01:13:13;;;;;;;8.82;4.70;;;3.70;99.90;;;;;;5114493;28;20200;-83
2021/03/02 01:15:41;;;;;;;14.18;5.20;;;3.70;99.90;;;;;;5115796;28;20250;-83
2021/03/02 01:18:07;;;;;;;5.97;4.95;;;3.50;99.90;;;;;;5115357;28;20247;-82
2021/03/02 01:20:34;;;;;;;8.13;5.32;;;3.40;99.90;;;;;;5114001;28;20636;-82
2021/03/02 01:23:01;;;;;;;8.75;5.90;;;3.30;99.90;;;;;;5115594;28;20200;-83
2021/03/02 01:25:28;;;;;;;5.65;4.55;;;3.10;99.90;;;;;;5115276;28;20208;-81
2021/03/02 01:27:54;;;;;;;11.13;5.50;;;3.00;99.90;;;;;;5113971;28;20229;-81
2021/03/02 01:30:23;;;;;;;11.07;5.38;;;2.90;99.90;;;;;;5115248;28;20204;-80
2021/03/02 01:32:49;;;;;;;8.38;5.20;;;2.90;99.90;;;;;;5114427;28;20201;-83
2021/03/02 01:35:16;;;;;;;10.70;6.03;;;2.90;99.90;;;;;;5114237;28;20227;-83
2021/03/02 01:37:43;;;;;;;8.60;5.53;;;2.90;99.90;;;;;;5114919;28;20197;-81
2021/03/02 01:40:12;;;;;;;10.38;5.50;;;2.80;99.90;;;;;;5114840;28;20256;-81
2021/03/02 01:42:39;;;;;;;6.90;5.50;;;2.80;99.90;;;;;;5113644;28;20627;-83
2021/03/02 01:45:07;;;;;;;8.15;6.03;;;2.90;99.90;;;;;;5059981;28;20224;-83
2021/03/02 01:47:34;;;;;;;6.72;4.78;;;2.80;99.90;;;;;;5110777;28;20286;-81
2021/03/02 01:50:01;;;;;;;8.35;4.70;;;2.90;99.90;;;;;;5113785;28;20754;-80
2021/03/02 01:52:27;;;;;;;9.20;5.78;;;2.80;99.90;;;;;;5114944;28;20580;-81
2021/03/02 01:54:53;;;;;;;8.70;5.75;;;2.80;99.90;;;;;;5114787;28;20303;-81
2021/03/02 01:57:20;;;;;;;12.05;5.57;;;2.80;99.90;;;;;;5113633;28;20248;-82
2021/03/02 01:59:47;;;;;;;8.73;4.55;;;2.90;99.90;;;;;;5114440;28;20314;-82
2021/03/02 02:02:18;;;;;;;12.93;5.80;;;2.80;99.90;;;;;;5114598;28;20639;-82
2021/03/02 02:04:50;;;;;;;9.07;6.53;;;2.70;99.90;;;;;;5114460;28;20437;-83
2021/03/02 02:07:21;;;;;;;7.80;5.45;;;2.70;99.90;;;;;;5114415;28;20208;-83
2021/03/02 02:09:54;;;;;;;9.65;5.38;;;2.70;99.90;;;;;;5114625;28;20232;-82
2021/03/02 02:12:27;;;;;;;10.52;6.45;;;2.80;99.90;;;;;;5113318;28;20296;-82
2021/03/02 02:14:58;;;;;;;7.57;4.85;;;2.90;99.90;;;;;;5114526;28;20229;-81
2021/03/02 02:17:33;;;;;;;9.80;5.20;;;3.00;99.90;;;;;;5114427;28;20291;-82
2021/03/02 02:20:02;;;;;;;11.98;5.95;;;3.10;99.90;;;;;;5113336;28;20298;-81
2021/03/02 02:22:40;;;;;;;6.45;5.80;;;3.00;99.90;;;;;;5114118;28;20730;-81
2021/03/02 02:25:22;;;;;;;10.38;5.55;;;3.00;99.90;;;;;;5114446;28;20199;-83
2021/03/02 02:27:54;;;;;;;10.80;5.45;;;2.80;99.90;;;;;;5112935;28;20196;-81
2021/03/02 02:30:21;;;;;;;7.00;4.90;;;2.70;99.90;;;;;;5114414;28;20245;-83
2021/03/02 02:32:49;;;;;;;9.80;5.15;;;2.50;99.90;;;;;;5114249;28;20668;-81
2021/03/02 02:35:19;;;;;;;8.07;5.68;;;2.50;99.90;;;;;;5112784;28;20203;-82
2021/03/02 02:37:48;;;;;;;8.98;5.10;;;2.50;99.90;;;;;;5114036;28;20207;-82
2021/03/02 02:40:16;;;;;;;7.97;5.30;;;2.50;99.90;;;;;;5113952;28;20273;-82
2021/03/02 02:42:46;;;;;;;8.98;5.90;;;2.40;99.90;;;;;;5111894;28;20196;-81
2021/03/02 02:45:14;;;;;;;11.75;4.85;;;2.40;99.90;;;;;;5114607;28;20200;-81
2021/03/02 02:47:41;;;;;;;7.93;5.50;;;2.40;99.90;;;;;;5115123;28;20630;-81
2021/03/02 02:50:09;;;;;;;8.75;5.13;;;2.40;99.90;;;;;;5114433;28;20365;-82
2021/03/02 02:52:38;;;;;;;11.63;5.82;;;2.40;99.90;;;;;;5115808;28;20265;-80
2021/03/02 02:55:05;;;;;;;8.00;5.85;;;2.30;99.90;;;;;;5132460;28;20715;-81
2021/03/02 02:57:39;;;;;;;7.75;5.55;;;2.30;99.90;;;;;;5131727;28;20238;-82
2021/03/02 03:00:06;;;;;;;6.65;4.43;;;2.20;99.90;;;;;;5119079;28;20367;-83
2021/03/02 03:02:35;;;;;;;7.93;4.82;;;2.20;99.90;;;;;;5131370;28;20224;-79
2021/03/02 03:05:08;;;;;;;11.73;7.00;;;2.20;99.90;;;;;;5135781;28;20210;-81
2021/03/02 03:07:40;;;;;;;9.82;5.63;;;2.20;99.90;;;;;;5135680;28;20344;-80
2021/03/02 03:10:11;;;;;;;8.20;5.63;;;2.20;99.90;;;;;;5116835;28;20601;-82
2021/03/02 03:12:40;;;;;;;6.20;5.07;;;2.20;99.90;;;;;;5113971;28;20291;-83
2021/03/02 03:15:09;;;;;;;10.25;5.95;;;2.20;99.90;;;;;;5114154;28;20208;-82
2021/03/02 03:17:40;;;;;;;9.93;6.20;;;2.10;99.90;;;;;;5113795;28;20203;-83
2021/03/02 03:20:10;;;;;;;10.38;6.13;;;2.00;99.90;;;;;;5112801;28;20222;-82
2021/03/02 03:22:37;;;;;;;8.18;5.80;;;2.00;99.90;;;;;;5113680;28;20283;-81
2021/03/02 03:25:05;;;;;;;8.00;5.20;;;2.00;99.90;;;;;;5113488;28;20303;-82
2021/03/02 03:27:34;;;;;;;10.38;6.18;;;2.00;99.90;;;;;;5094163;28;20287;-82
2021/03/02 03:30:01;;;;;;;19.52;7.72;;;2.00;99.90;;;;;;5113439;28;20706;-82
2021/03/02 03:32:29;;;;;;;8.60;6.13;;;2.00;99.90;;;;;;5113538;28;20257;-81
2021/03/02 03:35:02;;;;;;;7.93;5.18;;;2.10;99.90;;;;;;5112598;28;20210;-81
2021/03/02 03:37:29;;;;;;;10.07;5.55;;;2.20;99.90;;;;;;5113599;28;20240;-82
2021/03/02 03:39:56;;;;;;;8.85;6.50;;;2.20;99.90;;;;;;5113149;28;20322;-83
2021/03/02 03:42:22;;;;;;;8.07;4.85;;;2.10;99.90;;;;;;5112102;28;20200;-82
2021/03/02 03:44:49;;;;;;;13.18;6.10;;;2.00;99.90;;;;;;5113274;28;20202;-82
2021/03/02 03:47:16;;;;;;;8.40;5.78;;;2.00;99.90;;;;;;5113460;28;20291;-81
2021/03/02 03:49:43;;;;;;;11.52;5.60;;;2.00;99.90;;;;;;5111897;28;20692;-82
2021/03/02 03:52:15;;;;;;;12.68;4.97;;;2.00;99.90;;;;;;5113352;28;20295;-82
2021/03/02 03:54:43;;;;;;;8.90;4.70;;;2.00;99.90;;;;;;5113225;28;20751;-82
2021/03/02 03:57:11;;;;;;;9.98;5.53;;;2.00;99.90;;;;;;5114079;28;20208;-81
2021/03/02 03:59:39;;;;;;;9.00;6.55;;;2.00;99.90;;;;;;5113197;28;20746;-82
2021/03/02 04:02:07;;;;;;;9.65;5.80;;;2.00;99.90;;;;;;5117072;28;20286;-82
2021/03/02 04:04:34;;;;;;;7.90;5.40;;;2.00;99.90;;;;;;5116716;28;20294;-82
2021/03/02 04:07:01;;;;;;;7.13;5.28;;;2.00;99.90;;;;;;5116732;28;20228;-82
2021/03/02 04:09:29;;;;;;;8.95;5.38;;;1.90;99.90;;;;;;5116546;28;20238;-83
2021/03/02 04:11:55;;;;;;;9.35;6.45;;;1.90;99.90;;;;;;5115557;28;20228;-82
2021/03/02 04:14:22;;;;;;;7.15;5.72;;;1.90;99.90;;;;;;5116671;28;20202;-83
2021/03/02 04:16:48;;;;;;;6.78;5.15;;;1.90;99.90;;;;;;5116781;28;20200;-81
2021/03/02 04:19:14;;;;;;;8.75;4.60;;;1.90;99.90;;;;;;5115511;28;20562;-82
2021/03/02 04:21:41;;;;;;;11.80;5.57;;;1.90;99.90;;;;;;5116368;28;20294;-81
2021/03/02 04:24:08;;;;;;;13.13;6.25;;;1.90;99.90;;;;;;5111056;28;20290;-82
2021/03/02 04:26:36;;;;;;;10.35;6.05;;;2.00;99.90;;;;;;5116366;28;20292;-83
2021/03/02 04:29:02;;;;;;;11.63;6.03;;;2.10;99.90;;;;;;5115159;28;20785;-82
2021/03/02 04:31:28;;;;;;;10.95;5.57;;;2.10;99.90;;;;;;5116533;28;20222;-81
2021/03/02 04:33:55;;;;;;;8.90;5.45;;;2.10;99.90;;;;;;5116085;28;20200;-81
2021/03/02 04:36:21;;;;;;;11.07;6.32;;;2.10;99.90;;;;;;5115157;28;20238;-82
2021/03/02 04:38:47;;;;;;;9.10;6.82;;;2.00;99.90;;;;;;5116408;28;20239;-82
2021/03/02 04:41:14;;;;;;;11.43;5.57;;;2.00;99.90;;;;;;5116205;28;20708;-82
2021/03/02 04:43:41;;;;;;;8.32;5.30;;;2.00;99.90;;;;;;5115025;28;20667;-82
2021/03/02 04:46:08;;;;;;;8.23;6.30;;;2.00;99.90;;;;;;5116104;28;20304;-83
2021/03/02 04:48:34;;;;;;;10.35;5.93;;;1.90;99.90;;;;;;5115165;28;20709;-82
2021/03/02 04:51:01;;;;;;;6.70;5.13;;;1.90;99.90;;;;;;5115786;28;20287;-81
2021/03/02 04:53:28;;;;;;;10.90;6.10;;;1.90;99.90;;;;;;5115972;28;20678;-81
2021/03/02 04:55:54;;;;;;;10.10;5.65;;;1.90;99.90;;;;;;5116048;28;20234;-82
2021/03/02 04:58:21;;;;;;;9.65;6.53;;;1.80;99.90;;;;;;5114858;28;20207;-81
2021/03/02 05:00:49;;;;;;;13.32;5.57;;;1.80;99.90;;;;;;5116391;28;20204;-81
2021/03/02 05:03:15;;;;;;;16.85;6.47;;;1.70;99.90;;;;;;5114977;28;20231;-82
2021/03/02 05:05:41;;;;;;;14.15;6.35;;;1.70;99.90;;;;;;5115700;28;20258;-82
2021/03/02 05:08:08;;;;;;;10.05;5.53;;;1.80;99.90;;;;;;5114555;28;20293;-82
2021/03/02 05:10:34;;;;;;;12.75;6.65;;;1.80;99.90;;;;;;5115858;28;20538;-81
2021/03/02 05:13:01;;;;;;;10.77;6.18;;;1.80;99.90;;;;;;5114605;28;20222;-82
2021/03/02 05:15:27;;;;;;;14.00;7.18;;;1.80;99.90;;;;;;5115577;28;20224;-81
2021/03/02 05:17:54;;;;;;;15.43;6.95;;;1.80;99.90;;;;;;5115368;28;20290;-81
2021/03/02 05:20:21;;;;;;;18.02;7.20;;;1.90;99.90;;;;;;5114482;28;20234;-82
2021/03/02 05:22:47;;;;;;;13.27;6.95;;;1.90;99.90;;;;;;5115345;28;20301;-82
2021/03/02 05:25:14;;;;;;;10.07;6.88;;;1.90;99.90;;;;;;5115340;28;20206;-82
2021/03/02 05:27:40;;;;;;;10.73;7.25;;;1.80;99.90;;;;;;5113937;28;20618;-83
2021/03/02 05:30:08;;;;;;;8.68;5.70;;;1.80;99.90;;;;;;5115119;28;20265;-82
2021/03/02 05:32:35;;;;;;;11.15;7.55;;;1.80;99.90;;;;;;5112283;28;20206;-82
2021/03/02 05:35:02;;;;;;;12.18;7.25;;;1.80;99.90;;;;;;5115062;28;20295;-83
2021/03/02 05:37:29;;;;;;;10.35;6.00;;;1.80;99.90;;;;;;5114132;28;20356;-82
2021/03/02 05:39:55;;;;;;;11.90;6.00;;;1.80;99.90;;;;;;5115053;28;20322;-82
2021/03/02 05:42:21;;;;;;;11.00;6.50;;;1.70;99.90;;;;;;5113803;28;20690;-82
2021/03/02 05:44:48;;;;;;;17.15;7.05;;;1.80;99.90;;;;;;5115147;28;20662;-82
2021/03/02 05:47:14;;;;;;;12.15;6.47;;;1.90;99.90;;;;;;5114792;28;20294;-82
2021/03/02 05:49:41;;;;;;;10.82;6.70;;;1.90;99.90;;;;;;5113981;28;20281;-83
2021/03/02 05:52:11;;;;;;;12.00;7.00;;;1.90;99.90;;;;;;5115290;28;20294;-82
2021/03/02 05:54:41;;;;;;;17.27;7.50;;;1.90;99.90;;;;;;5114957;28;20666;-81
2021/03/02 05:57:07;;;;;;;10.32;6.55;;;1.90;99.90;;;;;;5109691;28;20319;-84
2021/03/02 05:59:34;;;;;;;10.10;6.80;;;1.80;99.90;;;;;;5114934;28;20565;-83
2021/03/02 06:02:01;;;;;;;9.43;6.70;;;1.90;99.90;;;;;;5111856;28;20204;-82
2021/03/02 06:04:28;;;;;;;14.07;8.73;;;1.90;99.90;;;;;;5114519;28;20663;-85
2021/03/02 06:07:00;;;;;;;16.88;8.20;;;1.90;99.90;;;;;;5114650;28;20329;-83
2021/03/02 06:09:28;;;;;;;13.52;7.28;;;2.00;99.90;;;;;;5114476;28;20243;-84
2021/03/02 06:12:02;;;;;;;13.13;9.88;;;1.90;99.90;;;;;;5113395;28;20267;-82
2021/03/02 06:14:30;;;;;;;12.32;8.63;;;2.00;99.90;;;;;;5114408;28;20207;-82
2021/03/02 06:16:57;;;;;;;13.05;8.10;;;2.00;99.90;;;;;;5114442;28;20200;-82
2021/03/02 06:19:39;;;;;;;17.80;7.40;;;2.10;99.90;;;;;;5113086;28;20273;-82
2021/03/02 06:22:06;;;;;;;19.23;9.02;;;2.10;99.90;;;;;;5114296;28;20340;-82
2021/03/02 06:24:40;;;;;;;16.30;8.35;;;2.20;99.90;;;;;;5114400;28;20203;-82
2021/03/02 06:27:13;;;;;;;15.18;8.32;;;2.10;99.90;;;;;;5113122;28;20265;-84
2021/03/02 06:29:40;;;;;;;14.68;8.98;;;2.10;99.90;;;;;;5109342;28;20232;-84
2021/03/02 06:32:08;;;;;;;13.52;8.70;;;2.10;99.90;;;;;;5114135;28;20213;-82
2021/03/02 06:34:34;;;;;;;10.60;7.10;;;2.20;99.90;;;;;;5113753;28;20291;-84
2021/03/02 06:37:03;;;;;;;18.20;9.23;;;2.20;99.90;;;;;;5114019;28;20224;-83
2021/03/02 06:39:31;;;;;;;15.88;9.48;;;2.30;99.90;;;;;;5114028;28;20236;-82
2021/03/02 06:42:16;;;;;;;14.50;9.13;;;2.20;99.90;;;;;;5112912;28;20298;-82
2021/03/02 06:44:44;;;;;;;18.38;8.82;;;2.30;99.90;;;;;;5114172;28;20243;-82
2021/03/02 06:47:13;;;;;;;16.63;7.78;;;2.40;99.90;;;;;;5114080;28;20200;-82
2021/03/02 06:49:44;;;;;;;15.13;9.18;;;2.50;99.90;;;;;;5112702;28;20228;-84
2021/03/02 06:52:15;;;;;;;24.45;10.05;;;2.60;99.90;;;;;;5114141;28;20201;-84
2021/03/02 06:54:42;;;;;;;13.48;8.85;;;2.70;99.90;;;;;;5113910;28;20234;-83
2021/03/02 06:57:08;;;;;;;18.25;9.45;;;2.80;99.90;;;;;;5112745;28;21161;-84
2021/03/02 06:59:35;;;;;;;17.85;10.43;;;2.90;99.90;;;;;;5114358;28;20204;-82
2021/03/02 07:02:02;;;;;;;19.75;9.75;;;2.90;99.90;;;;;;5114603;28;20206;-81
2021/03/02 07:04:30;;;;;;;14.32;8.85;;;3.00;99.90;;;;;;5113541;28;20324;-82
2021/03/02 07:06:58;;;;;;;16.58;8.93;;;3.10;99.90;;;;;;5114295;28;20283;-82
2021/03/02 07:09:25;;;;;;;17.05;9.50;;;3.20;99.90;;;;;;5136851;28;20280;-83
2021/03/02 07:11:54;;;;;;;16.67;8.27;;;3.20;99.90;;;;;;5135130;28;20196;-84
2021/03/02 07:14:22;;;;;;;16.05;10.45;;;3.30;99.90;;;;;;5117317;28;20226;-83
2021/03/02 07:16:51;;;;;;;14.30;8.90;;;3.40;99.90;;;;;;5127403;28;20212;-81
2021/03/02 07:19:19;;;;;;;16.17;10.27;;;3.50;99.90;;;;;;5133637;28;20227;-80
2021/03/02 07:21:50;;;;;;;17.42;8.98;;;3.60;99.90;;;;;;5133070;28;20287;-80
2021/03/02 07:24:19;;;;;;;16.92;11.02;;;3.70;99.90;;;;;;5111586;28;20204;-81
2021/03/02 07:26:47;;;;;;;16.45;9.20;;;3.70;99.90;;;;;;5113720;28;20211;-81
2021/03/02 07:29:14;;;;;;;15.80;9.07;;;3.80;99.90;;;;;;5113060;28;20238;-83
2021/03/02 07:31:41;;;;;;;18.08;10.50;;;3.80;99.90;;;;;;5115146;28;20230;-83
2021/03/02 07:34:10;;;;;;;17.55;10.43;;;3.90;99.90;;;;;;5116819;28;20228;-82
2021/03/02 07:36:38;;;;;;;14.70;10.02;;;4.00;99.90;;;;;;5097299;28;20281;-82
2021/03/02 07:39:17;;;;;;;16.02;10.05;;;4.10;99.90;;;;;;5096371;28;20251;-82
2021/03/02 07:41:44;;;;;;;14.20;9.48;;;4.20;99.90;;;;;;5100802;28;20300;-82
2021/03/02 07:44:10;;;;;;;13.07;8.70;;;4.40;99.90;;;;;;5117154;28;20714;-82
2021/03/02 07:46:48;;;;;;;20.45;10.43;;;4.50;99.90;;;;;;5117538;28;20281;-83
2021/03/02 07:49:36;;;;;;;19.35;11.30;;;4.50;99.90;;;;;;5116189;28;20234;-83
2021/03/02 07:52:20;;;;;;;15.48;9.00;;;4.60;99.90;;;;;;5117275;28;20207;-82
2021/03/02 07:54:46;;;;;;;13.27;9.80;;;4.70;99.90;;;;;;5117595;28;20207;-83
2021/03/02 07:57:34;;;;;;;16.65;9.48;;;4.80;99.90;;;;;;5115961;28;20204;-82
2021/03/02 08:00:23;;;;;;;14.57;10.35;;;5.00;99.90;;;;;;5112227;28;20196;-82
2021/03/02 08:03:26;;;;;;;13.13;8.85;;;5.10;99.90;;;;;;5117179;28;20204;-85
2021/03/02 08:05:55;;;;;;;15.93;9.63;;;5.20;99.90;;;;;;5116915;28;20200;-85
2021/03/02 08:08:35;;;;;;;12.80;8.43;;;5.30;99.90;;;;;;5117297;28;20287;-84
2021/03/02 08:11:03;;;;;;;15.63;9.48;;;5.40;99.90;;;;;;5116749;28;20196;-82
2021/03/02 08:13:37;;;;;;;14.80;9.30;;;5.50;99.90;;;;;;5115912;28;20675;-84
2021/03/02 08:16:05;;;;;;;11.80;9.10;;;5.60;99.90;;;;;;5117120;28;20208;-82
2021/03/02 08:18:33;;;;;;;17.10;11.70;;;5.70;99.90;;;;;;5116155;28;20544;-82
2021/03/02 08:21:15;;;;;;;16.90;10.27;;;5.90;99.90;;;;;;5118658;28;20253;-83
2021/03/02 08:23:53;;;;;;;17.45;11.43;;;6.00;99.90;;;;;;5116636;28;20265;-83
2021/03/02 08:26:37;;;;;;;18.90;10.10;;;6.10;99.90;;;;;;5111210;28;20291;-84
2021/03/02 08:29:13;;;;;;;21.35;10.23;;;6.30;99.90;;;;;;5115023;28;20255;-87
2021/03/02 08:31:43;;;;;;;17.88;10.90;;;6.40;99.90;;;;;;5116515;28;20200;-83
2021/03/02 08:34:10;;;;;;;24.02;12.63;;;6.60;99.90;;;;;;5116093;28;20276;-80
2021/03/02 08:36:39;;;;;;;26.17;11.77;;;6.70;99.90;;;;;;5116342;28;20647;-81
2021/03/02 08:39:11;;;;;;;24.05;12.30;;;6.80;99.90;;;;;;5114965;28;20200;-82
2021/03/02 08:41:39;;;;;;;20.15;12.95;;;6.90;99.90;;;;;;5116061;28;20279;-81
2021/03/02 08:44:07;;;;;;;18.52;12.40;;;7.00;99.90;;;;;;5114620;28;20253;-81
2021/03/02 08:46:36;;;;;;;15.85;12.23;;;7.10;99.90;;;;;;5116463;28;20283;-81
2021/03/02 08:49:09;;;;;;;16.95;11.30;;;7.30;99.90;;;;;;5116011;28;20376;-80
2021/03/02 08:51:36;;;;;;;22.95;11.30;;;7.40;99.90;;;;;;5114923;28;20204;-82
2021/03/02 08:54:04;;;;;;;18.17;10.80;;;7.50;99.90;;;;;;5116047;28;20261;-80
2021/03/02 08:56:31;;;;;;;14.63;10.93;;;7.50;99.90;;;;;;5115939;28;20602;-81
2021/03/02 08:59:06;;;;;;;17.23;10.77;;;7.60;99.90;;;;;;5114761;28;20574;-78
2021/03/02 09:01:34;;;;;;;18.33;11.60;;;7.70;99.90;;;;;;5116452;28;20200;-80
2021/03/02 09:04:09;;;;;;;19.17;11.77;;;7.80;99.90;;;;;;5115134;28;20196;-82
2021/03/02 09:06:38;;;;;;;20.08;12.40;;;7.90;99.90;;;;;;5117025;28;20203;-82
2021/03/02 09:09:07;;;;;;;21.42;11.52;;;8.00;99.90;;;;;;5117406;28;20315;-84
2021/03/02 09:11:36;;;;;;;20.20;12.20;;;8.10;99.90;;;;;;5080441;28;20294;-85
2021/03/02 09:14:07;;;;;;;20.88;10.73;;;8.10;99.90;;;;;;5115811;28;20232;-82
2021/03/02 09:16:47;;;;;;;16.10;10.98;;;8.30;99.90;;;;;;5111763;28;20235;-87
2021/03/02 09:19:22;;;;;;;18.98;11.95;;;8.30;99.90;;;;;;5114439;28;20578;-83
2021/03/02 09:21:55;;;;;;;15.50;10.05;;;8.50;99.90;;;;;;5115370;28;20638;-83
2021/03/02 09:24:24;;;;;;;11.80;9.03;;;8.50;99.90;;;;;;5115970;28;20238;-83
2021/03/02 09:26:53;;;;;;;19.43;11.50;;;8.50;99.90;;;;;;5109697;28;20453;-80
2021/03/02 09:29:20;;;;;;;14.30;10.03;;;8.70;99.90;;;;;;5115665;28;20494;-83
2021/03/02 09:31:47;;;;;;;17.80;10.67;;;8.80;99.90;;;;;;5116068;28;20884;-85
2021/03/02 09:34:14;;;;;;;18.33;13.20;;;8.80;99.90;;;;;;5116139;28;20456;-83
2021/03/02 09:36:41;;;;;;;13.57;9.63;;;8.90;99.90;;;;;;5110508;28;20865;-79
2021/03/02 09:39:20;;;;;;;18.90;11.47;;;9.10;99.90;;;;;;5115423;28;20837;-81
2021/03/02 09:41:48;;;;;;;15.47;9.90;;;9.20;99.90;;;;;;5116988;28;20533;-80
2021/03/02 09:44:32;;;;;;;12.47;10.17;;;9.20;99.90;;;;;;5119878;28;21001;-81
2021/03/02 09:47:04;;;;;;;17.17;8.60;;;9.30;99.90;;;;;;5137525;28;20456;-78
2021/03/02 09:49:45;;;;;;;16.10;10.20;;;9.40;99.90;;;;;;5136389;28;20492;-82
2021/03/02 09:52:38;;;;;;;13.73;8.87;;;9.40;99.80;;;;;;5131690;28;20485;-88
2021/03/02 09:55:23;;;;;;;20.13;10.50;;;9.50;99.90;;;;;;5115961;28;20898;-87
2021/03/02 09:58:07;;;;;;;18.30;10.50;;;9.50;99.90;;;;;;5114353;28;20442;-83
2021/03/02 10:00:37;;;;;;;16.77;10.23;;;9.60;99.60;;;;;;5112221;28;20458;-83
2021/03/02 10:03:09;;;;;;;18.27;10.30;;;9.70;99.30;;;;;;5116036;28;20511;-83
2021/03/02 10:05:38;;;;;;;14.43;9.60;;;9.80;99.10;;;;;;5113844;28;20458;-81
2021/03/02 10:08:38;;;;;;;16.07;10.33;;;9.90;99.10;;;;;;5114423;28;20490;-80
2021/03/02 10:11:19;;;;;;;13.87;8.20;;;10.00;98.30;;;;;;5114769;28;20446;-85
2021/03/02 10:13:50;;;;;;;14.80;9.23;;;10.10;97.50;;;;;;5114357;28;20447;-87
2021/03/02 10:16:22;;;;;;;12.20;8.70;;;10.30;97.80;;;;;;5115058;28;20485;-86
2021/03/02 10:18:52;;;;;;;10.87;8.03;;;10.40;97.40;;;;;;5113825;28;20462;-82
2021/03/02 10:21:21;;;;;;;13.67;8.93;;;10.40;96.90;;;;;;5116317;28;20933;-83
2021/03/02 10:23:50;;;;;;;13.87;9.03;;;10.50;97.10;;;;;;5062399;28;20523;-83
2021/03/02 10:26:25;;;;;;;12.40;9.67;;;10.70;97.50;;;;;;5114598;28;20882;-82
2021/03/02 10:28:53;;;;;;;13.83;10.70;;;10.70;96.90;;;;;;5112681;28;20438;-83
2021/03/02 10:31:21;;;;;;;14.20;9.33;;;10.70;97.30;;;;;;5113771;28;20544;-84
2021/03/02 10:33:48;;;;;;;11.97;8.97;;;10.90;97.20;;;;;;5114172;28;20457;-81
2021/03/02 10:36:28;;;;;;;12.80;9.13;;;10.90;96.60;;;;;;5114170;28;20500;-83
2021/03/02 10:38:56;;;;;;;13.13;8.90;;;11.00;96.50;;;;;;5113050;28;20535;-83
2021/03/02 10:41:25;;;;;;;15.37;9.33;;;11.00;96.10;;;;;;5114026;28;20464;-82
2021/03/02 10:43:54;;;;;;;15.70;10.18;;;11.00;96.60;;;;;;5111121;28;20550;-81
2021/03/02 10:46:22;;;;;;;20.73;10.13;;;11.10;96.00;;;;;;5114671;28;20569;-82
2021/03/02 10:48:49;;;;;;;16.70;10.30;;;11.30;96.40;;;;;;5113005;28;20470;-87
2021/03/02 10:51:16;;;;;;;13.40;9.40;;;11.30;95.60;;;;;;5115810;28;20513;-86
2021/03/02 10:53:43;;;;;;;18.40;10.47;;;11.50;95.40;;;;;;5114357;28;20778;-85
2021/03/02 10:56:10;;;;;;;13.97;9.50;;;11.50;95.60;;;;;;5114387;28;20460;-82
2021/03/02 10:58:36;;;;;;;20.50;10.53;;;11.50;95.00;;;;;;5113087;28;20533;-82
2021/03/02 11:01:04;;;;;;;14.53;9.57;;;11.60;95.40;;;;;;5114282;28;20486;-86
2021/03/02 11:03:31;;;;;;;16.77;10.23;;;11.60;95.30;;;;;;5114597;28;20866;-89
2021/03/02 11:05:58;;;;;;;13.70;9.60;;;11.80;95.20;;;;;;5114135;28;20549;-88
2021/03/02 11:08:24;;;;;;;15.70;9.70;;;12.00;95.10;;;;;;5112322;28;20985;-85
2021/03/02 11:10:51;;;;;;;13.47;9.20;;;12.00;94.70;;;;;;5114468;28;21000;-86
2021/03/02 11:13:18;;;;;;;15.70;10.57;;;12.00;94.40;;;;;;5112798;28;20538;-86
2021/03/02 11:15:45;;;;;;;13.70;9.20;;;11.80;94.10;;;;;;5113995;28;20482;-87
2021/03/02 11:18:12;;;;;;;16.73;10.53;;;11.90;94.10;;;;;;5114198;28;20546;-84
2021/03/02 11:20:42;;;;;;;13.20;8.80;;;12.00;93.80;;;;;;5116304;28;20465;-83
2021/03/02 11:23:09;;;;;;;12.60;9.10;;;12.10;94.10;;;;;;5113724;28;20466;-86
2021/03/02 11:25:35;;;;;;;15.47;9.93;;;12.20;93.60;;;;;;5096262;28;20451;-80
2021/03/02 11:28:02;;;;;;;12.90;9.13;;;12.40;93.90;;;;;;5105898;28;20487;-84
2021/03/02 11:30:28;;;;;;;13.50;9.17;;;12.50;93.60;;;;;;5115167;28;20519;-82
2021/03/02 11:32:55;;;;;;;13.23;8.50;;;12.50;93.10;;;;;;5115475;28;20478;-89
2021/03/02 11:35:22;;;;;;;10.90;8.30;;;12.50;92.60;;;;;;5108369;28;20463;-90
2021/03/02 11:37:49;;;;;;;12.27;8.90;;;12.50;92.80;;;;;;5109215;28;20455;-88
2021/03/02 11:40:17;;;;;;;14.27;9.63;;;12.60;92.50;;;;;;5111791;28;20492;-93
2021/03/02 11:42:44;;;;;;;13.13;8.83;;;12.70;92.60;;;;;;5116680;28;20493;-89
2021/03/02 11:45:12;;;;;;;15.20;9.37;;;12.80;92.50;;;;;;5064619;28;20486;-88
2021/03/02 11:47:39;;;;;;;18.40;9.13;;;12.90;92.50;;;;;;5114951;28;20838;-89
2021/03/02 11:50:07;;;;;;;16.77;10.30;;;13.00;92.60;;;;;;5114545;28;20582;-89
2021/03/02 11:52:36;;;;;;;12.27;8.83;;;12.90;92.60;;;;;;5063887;28;20549;-89
2021/03/02 11:55:03;;;;;;;15.83;10.00;;;13.10;92.30;;;;;;5114846;28;20788;-89
2021/03/02 11:57:31;;;;;;;15.80;10.83;;;13.10;92.30;;;;;;5107965;28;20545;-89
2021/03/02 11:59:58;;;;;;;13.20;9.83;;;12.90;92.30;;;;;;5116036;28;20456;-92
2021/03/02 12:02:24;;;;;;;14.63;10.40;;;13.00;92.80;;;;;;5115034;28;20535;-89
2021/03/02 12:04:51;;;;;;;16.00;11.00;;;13.20;92.40;;;;;;5113875;28;20806;-89
2021/03/02 12:07:18;;;;;;;14.80;10.23;;;13.30;92.30;;;;;;5097494;28;20461;-90
2021/03/02 12:09:46;;;;;;;17.93;10.20;;;13.30;92.40;;;;;;5095054;28;21011;-92
2021/03/02 12:12:13;;;;;;;12.83;10.27;;;13.40;92.20;;;;;;5093815;28;20488;-86
2021/03/02 12:14:39;;;;;;;16.33;10.27;;;13.40;92.00;;;;;;5094114;28;20544;-86
2021/03/02 12:17:06;;;;;;;16.40;10.40;;;13.50;92.10;;;;;;5060159;28;20460;-86
2021/03/02 12:19:33;;;;;;;14.67;11.07;;;13.40;91.70;;;;;;5099726;28;20491;-87
2021/03/02 12:21:59;;;;;;;18.17;10.90;;;13.40;91.90;;;;;;5111414;28;20463;-88
2021/03/02 12:24:25;;;;;;;14.73;9.40;;;13.40;92.10;;;;;;5119336;28;20449;-92
2021/03/02 12:26:53;;;;;;;18.27;9.40;;;13.60;91.10;;;;;;5122131;28;20562;-86
2021/03/02 12:29:19;;;;;;;16.23;10.60;;;13.60;91.60;;;;;;5122781;28;20575;-91
2021/03/02 12:31:46;;;;;;;16.17;9.50;;;13.70;91.10;;;;;;5128132;28;20485;-90
2021/03/02 12:34:13;;;;;;;14.17;10.73;;;13.80;91.30;;;;;;5124705;28;21016;-91
2021/03/02 12:36:40;;;;;;;12.70;9.73;;;13.90;91.30;;;;;;5103955;28;20532;-91
2021/03/02 12:39:09;;;;;;;14.77;10.17;;;14.00;90.20;;;;;;5103600;28;20514;-89
2021/03/02 12:41:36;;;;;;;14.40;11.10;;;13.90;90.50;;;;;;5103754;28;20548;-82
2021/03/02 12:44:04;;;;;;;18.03;10.20;;;13.90;90.00;;;;;;5100403;28;20473;-89
2021/03/02 12:46:31;;;;;;;14.30;10.17;;;13.90;90.60;;;;;;5099277;28;20535;-89
2021/03/02 12:48:57;;;;;;;15.47;10.30;;;14.00;90.70;;;;;;5100359;28;20462;-90
2021/03/02 12:51:24;;;;;;;15.67;10.07;;;14.10;90.00;;;;;;5101543;28;20497;-88
2021/03/02 12:53:50;;;;;;;14.97;10.87;;;14.10;90.00;;;;;;5105183;28;20536;-89
2021/03/02 12:56:16;;;;;;;13.10;8.77;;;14.30;90.00;;;;;;5123842;28;20452;-89